Terminal Aerodrome Forecast
Issued by NWS

Home | Current Version | Previous Version | Text Only | Print | Product List | Glossary On
Versions: 1 2 3 4 5 6 7 8 9 10 11 12 13 14 15 16 17 18 19
000
FTUS43 KABR 022300
TAFMBG
TAF
KMBG 022325Z 0300/0324 16010KT P6SM BKN080
     FM030700 34020G30KT 3SM -SN BLSN OVC030
     FM031400 33026G35KT P6SM OVC025=

USA.gov is the U.S. government's official web portal to all federal, state and local government web resources and services.